createdAt,value
2022-11-25T00:03:16.119Z,40.17
2022-11-25T00:08:21.296Z,36.67
2022-11-25T00:13:25.008Z,32.17
2022-11-25T00:18:28.761Z,43.05
2022-11-25T00:23:33.991Z,44.55
2022-11-25T00:28:38.797Z,44.33
2022-11-25T00:33:42.984Z,47.80
2022-11-25T00:38:48.402Z,45.20
2022-11-25T00:44:09.673Z,34.35
2022-11-25T00:49:13.432Z,44.28
2022-11-25T00:54:18.704Z,39.60
2022-11-25T00:59:22.854Z,43.03
2022-11-25T01:04:26.684Z,33.97
2022-11-25T01:09:32.363Z,40.35
2022-11-25T01:14:36.772Z,40.47
2022-11-25T01:19:42.005Z,34.92
2022-11-25T01:24:47.118Z,35.97
2022-11-25T01:29:50.943Z,35.95
2022-11-25T01:34:54.702Z,31.33
2022-11-25T01:39:59.847Z,32.47
2022-11-25T01:45:35.262Z,31.20
2022-11-25T01:50:40.073Z,35.17
2022-11-25T01:55:49.608Z,28.45
2022-11-25T02:00:53.696Z,26.90
2022-11-25T02:06:05.187Z,27.52
2022-11-25T02:11:11.087Z,34.60
2022-11-25T02:16:15.336Z,32.33
2022-11-25T02:21:25.746Z,33.60
2022-11-25T02:26:32.363Z,41.08
2022-11-25T02:31:36.405Z,36.08
2022-11-25T02:36:40.421Z,42.92
2022-11-25T02:41:50.728Z,36.95
2022-11-25T02:46:55.307Z,35.65
2022-11-25T02:51:59.272Z,35.08
2022-11-25T03:02:12.142Z,37.45
2022-11-25T03:07:16.084Z,36.72
2022-11-25T03:12:21.304Z,34.70
2022-11-25T03:17:29.834Z,32.88
2022-11-25T03:22:33.687Z,38.05
2022-11-25T03:27:42.862Z,59.05
2022-11-25T03:32:47.493Z,34.70
2022-11-25T03:37:51.343Z,38.15
2022-11-25T03:42:56.769Z,32.50
2022-11-25T03:48:01.300Z,29.38
2022-11-25T03:53:05.644Z,27.00
2022-11-25T03:58:11.107Z,33.80
2022-11-25T04:03:14.971Z,31.05
2022-11-25T04:08:19.171Z,28.60
2022-11-25T04:13:24.909Z,33.92
2022-11-25T04:18:29.480Z,27.95
2022-11-25T04:23:35.782Z,31.33
2022-11-25T04:28:48.681Z,27.15
2022-11-25T04:33:53.014Z,35.92
2022-11-25T04:38:59.807Z,31.15
2022-11-25T04:44:05.671Z,31.35
2022-11-25T04:54:17.399Z,59.78
2022-11-25T04:59:41.817Z,38.30
2022-11-25T05:04:49.889Z,40.67
2022-11-25T05:09:54.324Z,36.35
2022-11-25T05:15:11.933Z,38.35
2022-11-25T05:20:16.585Z,37.72
2022-11-25T05:25:21.356Z,32.70
2022-11-25T05:36:04.274Z,35.20
2022-11-25T05:41:16.345Z,36.88
2022-11-25T05:46:24.609Z,34.83
2022-11-25T05:51:32.476Z,37.60
2022-11-25T05:56:40.199Z,34.47
2022-11-25T06:02:07.219Z,33.30
2022-11-25T06:07:11.418Z,35.17
2022-11-25T06:12:17.517Z,38.92
2022-11-25T06:17:29.653Z,37.65
2022-11-25T06:22:43.149Z,37.67
2022-11-25T06:28:11.249Z,37.55
2022-11-25T06:33:13.832Z,37.38
2022-11-25T06:38:20.671Z,43.25
2022-11-25T06:43:24.638Z,41.40
2022-11-25T06:48:30.298Z,46.10
2022-11-25T06:53:35.135Z,42.90
2022-11-25T06:58:39.427Z,47.93
2022-11-25T07:03:45.409Z,42.25
2022-11-25T07:08:50.155Z,44.60
2022-11-25T07:13:55.301Z,47.22
2022-11-25T07:19:02.272Z,48.57
2022-11-25T07:24:08.132Z,45.70
2022-11-25T07:34:38.002Z,46.85
2022-11-25T07:39:41.866Z,54.58
2022-11-25T07:44:45.660Z,60.22
2022-11-25T07:50:11.563Z,57.53
2022-11-25T08:00:19.873Z,56.17
2022-11-25T08:05:25.139Z,48.55
2022-11-25T08:10:28.963Z,43.73
2022-11-25T08:15:34.108Z,42.83
2022-11-25T08:20:39.530Z,42.67
2022-11-25T08:25:48.992Z,62.77
2022-11-25T08:30:54.356Z,50.47
2022-11-25T08:35:59.586Z,51.35
2022-11-25T08:41:03.635Z,57.72
2022-11-25T08:46:12.475Z,51.53
2022-11-25T08:51:20.869Z,52.88
2022-11-25T08:56:26.529Z,50.60
2022-11-25T09:01:30.497Z,52.95
2022-11-25T09:06:35.861Z,55.17
2022-11-25T09:11:39.718Z,42.65
2022-11-25T09:16:43.917Z,59.13
2022-11-25T09:21:49.583Z,49.78
2022-11-25T09:26:53.436Z,48.25
2022-11-25T09:31:57.312Z,45.97
2022-11-25T09:37:02.649Z,43.85
2022-11-25T09:42:54.317Z,48.22
2022-11-25T09:48:10.470Z,50.65
2022-11-25T09:53:30.074Z,53.55
2022-11-25T09:58:37.249Z,52.28
2022-11-25T10:03:44.703Z,72.50
2022-11-25T10:08:51.780Z,69.32
2022-11-25T10:13:59.981Z,74.97
2022-11-25T10:19:13.116Z,90.05
2022-11-25T10:24:21.439Z,99.30
2022-11-25T10:29:28.089Z,96.22
2022-11-25T10:34:38.270Z,107.90
2022-11-25T10:39:43.688Z,88.05
2022-11-25T10:44:47.717Z,91.28
2022-11-25T10:50:12.373Z,80.25
2022-11-25T10:55:20.510Z,91.60
2022-11-25T11:00:30.689Z,90.85
2022-11-25T11:05:34.705Z,88.20
2022-11-25T11:10:40.829Z,90.03
2022-11-25T11:15:48.037Z,111.47
2022-11-25T11:20:53.699Z,123.03
2022-11-25T11:26:02.402Z,121.13
2022-11-25T11:31:10.136Z,119.68
2022-11-25T11:36:32.934Z,119.30
2022-11-25T11:41:45.432Z,110.25
2022-11-25T11:47:03.143Z,121.72
2022-11-25T11:52:15.313Z,121.55
2022-11-25T11:57:28.401Z,134.48
2022-11-25T12:08:01.693Z,135.40
2022-11-25T12:13:17.084Z,128.57
2022-11-25T12:18:38.065Z,126.07
2022-11-25T12:23:49.976Z,130.00
2022-11-25T12:28:59.162Z,140.68
2022-11-25T12:34:09.092Z,139.50
2022-11-25T12:39:21.431Z,133.93
2022-11-25T12:44:32.503Z,147.38
2022-11-25T12:49:42.101Z,163.90
2022-11-25T12:55:19.038Z,161.40
2022-11-25T13:00:41.053Z,156.30
2022-11-25T13:06:16.820Z,188.15
2022-11-25T13:11:41.797Z,161.73
2022-11-25T13:16:50.743Z,155.55
2022-11-25T13:22:02.796Z,112.95
2022-11-25T13:27:07.232Z,95.07
2022-11-25T13:37:41.797Z,62.50
2022-11-25T13:42:46.249Z,72.85
2022-11-25T13:47:50.592Z,87.85
2022-11-25T13:53:02.199Z,100.25
2022-11-25T13:58:17.975Z,86.63
2022-11-25T14:03:44.601Z,106.00
2022-11-25T14:09:00.622Z,109.70
2022-11-25T14:20:03.858Z,119.50
2022-11-25T14:25:20.389Z,141.05
2022-11-25T14:30:26.927Z,114.35
2022-11-25T14:35:43.552Z,117.95
2022-11-25T14:40:59.154Z,125.80
2022-11-25T14:46:16.718Z,125.00
2022-11-25T14:51:21.110Z,135.65
2022-11-25T14:56:29.030Z,123.95
2022-11-25T15:01:34.585Z,144.27
2022-11-25T15:06:41.131Z,157.15
2022-11-25T15:11:47.019Z,190.88
2022-11-25T15:22:23.061Z,177.20
2022-11-25T15:27:26.694Z,160.63
2022-11-25T15:32:37.617Z,165.95
2022-11-25T15:37:41.376Z,186.00
2022-11-25T15:42:46.686Z,160.55
2022-11-25T15:47:50.562Z,146.13
2022-11-25T15:52:57.024Z,142.85
2022-11-25T15:58:05.957Z,149.25
2022-11-25T16:03:20.643Z,145.25
2022-11-25T16:08:30.102Z,169.27
2022-11-25T16:13:38.253Z,143.07
2022-11-25T16:18:49.597Z,224.57
2022-11-25T16:23:58.019Z,160.45
2022-11-25T16:29:14.624Z,137.48
2022-11-25T16:34:20.972Z,142.30
2022-11-25T16:39:26.159Z,139.70
2022-11-25T16:44:33.222Z,134.43
2022-11-25T16:49:37.237Z,123.22
2022-11-25T16:54:41.933Z,106.85
2022-11-25T16:59:53.246Z,138.38
2022-11-25T17:05:08.356Z,133.23
2022-11-25T17:10:12.872Z,118.57
2022-11-25T17:15:20.966Z,109.93
2022-11-25T17:20:25.697Z,120.20
2022-11-25T17:25:36.504Z,114.15
2022-11-25T17:30:44.185Z,99.43
2022-11-25T17:35:48.028Z,100.22
2022-11-25T17:40:51.816Z,104.47
2022-11-25T17:45:57.221Z,117.63
2022-11-25T17:51:05.933Z,142.68
2022-11-25T17:56:22.203Z,117.18
2022-11-25T18:01:29.408Z,126.20
2022-11-25T18:06:33.314Z,119.28
2022-11-25T18:11:40.284Z,126.30
2022-11-25T18:16:47.751Z,148.10
2022-11-25T18:21:51.643Z,138.05
2022-11-25T18:26:55.411Z,158.27
2022-11-25T18:32:00.740Z,149.90
2022-11-25T18:37:04.993Z,156.18
2022-11-25T18:42:09.473Z,152.20
2022-11-25T18:47:14.865Z,140.68
2022-11-25T18:52:18.920Z,234.65
2022-11-25T18:57:22.811Z,243.15
2022-11-25T19:02:28.031Z,230.57
2022-11-25T19:07:32.102Z,185.93
2022-11-25T19:12:36.038Z,315.88
2022-11-25T19:17:42.781Z,434.05
2022-11-25T19:22:47.096Z,357.42
2022-11-25T19:27:55.055Z,389.73
2022-11-25T19:33:02.756Z,412.75
2022-11-25T19:38:14.702Z,164.80
2022-11-25T19:43:18.583Z,169.00
2022-11-25T19:48:25.030Z,190.35
2022-11-25T19:53:33.762Z,196.90
2022-11-25T19:58:38.054Z,192.23
2022-11-25T20:03:47.992Z,207.80
2022-11-25T20:08:52.685Z,171.60
2022-11-25T20:13:56.554Z,192.50
2022-11-25T20:19:01.771Z,191.63
2022-11-25T20:24:12.663Z,127.15
2022-11-25T20:29:19.696Z,96.80
2022-11-25T20:34:24.876Z,93.43
2022-11-25T20:39:28.648Z,107.23
2022-11-25T20:44:32.564Z,110.38
2022-11-25T20:49:38.115Z,102.20
2022-11-25T20:54:42.014Z,112.60
2022-11-25T20:59:45.917Z,108.07
2022-11-25T21:04:51.097Z,127.57
2022-11-25T21:09:55.148Z,126.73
2022-11-25T21:14:58.993Z,138.73
2022-11-25T21:20:04.316Z,114.82
2022-11-25T21:25:10.649Z,114.43
2022-11-25T21:30:20.141Z,109.93
2022-11-25T21:35:29.134Z,109.20
2022-11-25T21:40:37.751Z,138.95
2022-11-25T21:45:41.796Z,135.85
2022-11-25T21:50:47.128Z,145.38
2022-11-25T21:55:52.023Z,137.20
2022-11-25T22:00:58.369Z,128.15
2022-11-25T22:06:03.530Z,126.22
2022-11-25T22:11:14.234Z,124.72
2022-11-25T22:16:22.360Z,130.85
2022-11-25T22:21:27.572Z,123.28
2022-11-25T22:26:34.090Z,127.05
2022-11-25T22:31:38.082Z,126.68
2022-11-25T22:36:43.298Z,124.97
2022-11-25T22:41:50.119Z,118.03
2022-11-25T22:46:54.798Z,126.40
2022-11-25T22:52:00.147Z,124.60
2022-11-25T22:57:03.873Z,126.05
2022-11-25T23:02:08.464Z,122.78
2022-11-25T23:07:13.967Z,120.80
2022-11-25T23:12:19.216Z,130.40
2022-11-25T23:17:25.642Z,121.43
2022-11-25T23:22:30.823Z,116.95
2022-11-25T23:27:34.803Z,114.57
2022-11-25T23:32:38.610Z,111.10
2022-11-25T23:37:43.765Z,115.07
2022-11-25T23:42:48.049Z,109.63
2022-11-25T23:47:53.522Z,104.85
2022-11-25T23:53:02.384Z,104.35
2022-11-25T23:58:15.216Z,97.10
